createdAt,value
2019-03-25T00:03:05.660Z,73.10
2019-03-25T00:07:16.915Z,73.00
2019-03-25T00:11:28.591Z,73.20
2019-03-25T00:15:39.843Z,73.20
2019-03-25T00:19:51.063Z,72.50
2019-03-25T00:24:02.362Z,72.40
2019-03-25T00:28:13.877Z,72.20
2019-03-25T00:32:25.084Z,72.30
2019-03-25T00:36:36.979Z,72.50
2019-03-25T00:40:48.411Z,72.40
2019-03-25T00:45:00.508Z,72.30
2019-03-25T00:49:11.529Z,72.20
2019-03-25T00:53:24.855Z,72.10
2019-03-25T00:57:36.048Z,72.00
2019-03-25T01:01:47.156Z,71.90
2019-03-25T01:05:58.268Z,72.10
2019-03-25T01:10:09.523Z,72.50
2019-03-25T01:14:20.730Z,72.70
2019-03-25T01:18:31.948Z,73.20
2019-03-25T01:22:43.181Z,73.60
2019-03-25T01:26:54.825Z,74.10
2019-03-25T01:31:06.553Z,74.70
2019-03-25T01:35:17.753Z,75.00
2019-03-25T01:39:29.524Z,75.40
2019-03-25T01:43:40.835Z,76.00
2019-03-25T01:47:54.634Z,76.40
2019-03-25T01:52:05.823Z,76.70
2019-03-25T01:56:16.055Z,77.30
2019-03-25T02:00:27.405Z,78.00
2019-03-25T02:04:38.774Z,78.80
2019-03-25T02:08:51.418Z,79.40
2019-03-25T02:13:02.860Z,80.00
2019-03-25T02:17:14.540Z,80.90
2019-03-25T02:21:25.703Z,81.50
2019-03-25T02:25:36.957Z,82.00
2019-03-25T02:29:48.149Z,82.50
2019-03-25T02:33:59.424Z,82.60
2019-03-25T02:38:10.667Z,82.60
2019-03-25T02:42:22.020Z,83.00
2019-03-25T02:46:33.210Z,83.10
2019-03-25T02:50:44.478Z,83.20
2019-03-25T02:54:55.939Z,83.20
2019-03-25T02:59:07.531Z,83.30
2019-03-25T03:03:18.777Z,83.20
2019-03-25T03:07:29.986Z,83.10
2019-03-25T03:11:41.372Z,83.10
2019-03-25T03:15:52.731Z,82.90
2019-03-25T03:20:05.708Z,82.30
2019-03-25T03:24:16.788Z,81.70
2019-03-25T03:28:27.993Z,82.10
2019-03-25T03:32:39.034Z,80.90
2019-03-25T03:36:50.286Z,80.50
2019-03-25T03:41:01.817Z,78.20
2019-03-25T03:45:13.404Z,76.70
2019-03-25T03:49:24.856Z,76.80
2019-03-25T03:53:36.549Z,77.10
2019-03-25T03:57:47.946Z,77.70
2019-03-25T04:01:59.585Z,78.40
2019-03-25T04:06:11.312Z,79.20
2019-03-25T04:10:21.985Z,79.50
2019-03-25T04:14:33.062Z,78.90
2019-03-25T04:18:44.212Z,78.00
2019-03-25T04:22:56.077Z,78.00
2019-03-25T04:27:07.171Z,78.30
2019-03-25T04:31:18.503Z,78.50
2019-03-25T04:35:29.739Z,79.40
2019-03-25T04:39:40.763Z,80.20
2019-03-25T04:43:54.413Z,80.80
2019-03-25T04:48:05.061Z,80.80
2019-03-25T04:52:16.290Z,80.70
2019-03-25T04:56:38.820Z,79.90
2019-03-25T05:00:41.056Z,79.90
2019-03-25T05:04:52.476Z,79.50
2019-03-25T05:09:02.890Z,79.30
2019-03-25T05:13:14.494Z,79.40
2019-03-25T05:17:24.918Z,79.90
2019-03-25T05:21:37.235Z,79.50
2019-03-25T05:25:48.347Z,79.30
2019-03-25T05:30:00.467Z,79.60
2019-03-25T05:34:11.625Z,78.90
2019-03-25T05:38:23.324Z,77.60
2019-03-25T05:42:34.545Z,78.30
2019-03-25T05:46:45.873Z,77.70
2019-03-25T05:50:57.068Z,78.50
2019-03-25T05:55:08.436Z,77.60
2019-03-25T05:59:19.725Z,77.10
2019-03-25T06:03:32.156Z,77.10
2019-03-25T06:07:43.798Z,76.70
2019-03-25T06:11:54.930Z,78.30
2019-03-25T06:16:06.274Z,80.20
2019-03-25T06:20:18.879Z,79.70
2019-03-25T06:24:30.081Z,80.10
2019-03-25T06:28:41.142Z,80.20
2019-03-25T06:32:52.198Z,81.20
2019-03-25T06:37:03.280Z,80.90
2019-03-25T06:41:14.466Z,80.60
2019-03-25T06:45:25.597Z,80.30
2019-03-25T06:49:37.077Z,80.30
2019-03-25T06:53:53.447Z,80.80
2019-03-25T06:58:05.296Z,80.50
2019-03-25T07:02:18.255Z,80.50
2019-03-25T07:06:29.621Z,80.50
2019-03-25T07:10:42.065Z,81.30
2019-03-25T07:14:53.462Z,82.70
2019-03-25T07:19:07.279Z,82.80
2019-03-25T07:23:18.355Z,82.70
2019-03-25T07:27:36.783Z,84.30
2019-03-25T07:31:43.327Z,84.90
2019-03-25T07:35:54.009Z,85.80
2019-03-25T07:40:07.325Z,85.90
2019-03-25T07:44:19.058Z,87.20
2019-03-25T07:48:32.425Z,87.40
2019-03-25T07:52:43.652Z,86.70
2019-03-25T07:56:54.884Z,85.20
2019-03-25T08:01:06.453Z,85.40
2019-03-25T08:05:18.659Z,83.10
2019-03-25T08:09:29.860Z,83.50
2019-03-25T08:13:41.669Z,82.90
2019-03-25T08:17:52.738Z,81.40
2019-03-25T08:22:04.467Z,80.60
2019-03-25T08:26:15.566Z,80.00
2019-03-25T08:30:26.890Z,77.90
2019-03-25T08:34:37.973Z,75.10
2019-03-25T08:38:50.452Z,72.80
2019-03-25T08:43:02.260Z,71.60
2019-03-25T08:47:13.784Z,71.50
2019-03-25T08:51:25.090Z,69.90
2019-03-25T08:55:36.395Z,72.50
2019-03-25T08:59:46.947Z,72.60
2019-03-25T09:03:58.206Z,69.70
2019-03-25T09:08:09.397Z,69.00
2019-03-25T09:12:20.555Z,67.30
2019-03-25T09:16:33.759Z,65.60
2019-03-25T09:20:44.823Z,68.30
2019-03-25T09:24:56.316Z,70.30
2019-03-25T09:29:07.322Z,69.10
2019-03-25T09:33:18.591Z,68.40
2019-03-25T09:37:29.648Z,66.10
2019-03-25T09:41:40.838Z,66.90
2019-03-25T09:45:51.538Z,67.00
2019-03-25T09:50:02.911Z,68.00
2019-03-25T09:54:14.199Z,67.40
2019-03-25T09:58:35.744Z,67.10
2019-03-25T10:02:37.931Z,69.30
2019-03-25T10:06:49.445Z,69.60
2019-03-25T10:11:00.571Z,67.50
2019-03-25T10:15:11.939Z,65.90
2019-03-25T10:19:23.692Z,66.30
2019-03-25T10:23:34.914Z,60.20
2019-03-25T10:27:46.924Z,56.00
2019-03-25T10:31:58.085Z,53.10
2019-03-25T10:36:08.211Z,51.50
2019-03-25T10:40:19.451Z,49.00
2019-03-25T10:44:32.191Z,51.80
2019-03-25T10:48:43.487Z,53.50
2019-03-25T10:52:54.617Z,55.80
2019-03-25T10:57:05.737Z,58.30
2019-03-25T11:01:16.962Z,60.20
2019-03-25T11:05:27.167Z,59.70
2019-03-25T11:09:38.350Z,57.00
2019-03-25T11:13:52.292Z,56.60
2019-03-25T11:18:05.856Z,56.10
2019-03-25T11:22:17.303Z,55.00
2019-03-25T11:26:28.464Z,55.30
2019-03-25T11:30:45.945Z,56.80
2019-03-25T11:34:57.379Z,56.60
2019-03-25T11:39:09.690Z,56.90
2019-03-25T11:43:20.838Z,56.00
2019-03-25T11:47:31.947Z,56.00
2019-03-25T11:51:43.301Z,55.00
2019-03-25T11:55:54.601Z,56.80
2019-03-25T12:00:08.185Z,57.20
2019-03-25T12:04:20.729Z,58.70
2019-03-25T12:08:31.951Z,59.90
2019-03-25T12:12:43.204Z,63.90
2019-03-25T12:16:54.475Z,70.80
2019-03-25T12:21:06.940Z,72.50
2019-03-25T12:25:18.249Z,74.60
2019-03-25T12:29:30.612Z,72.30
2019-03-25T12:33:42.043Z,70.30
2019-03-25T12:37:52.312Z,71.20
2019-03-25T12:42:03.410Z,71.60
2019-03-25T12:46:14.525Z,72.40
2019-03-25T12:50:25.614Z,73.20
2019-03-25T12:54:36.681Z,72.80
2019-03-25T12:58:47.807Z,76.00
2019-03-25T13:02:59.202Z,82.00
2019-03-25T13:07:10.332Z,85.30
2019-03-25T13:11:22.992Z,88.60
2019-03-25T13:15:34.058Z,90.30
2019-03-25T13:19:45.261Z,90.80
2019-03-25T13:23:57.074Z,91.00
2019-03-25T13:28:11.433Z,91.00
2019-03-25T13:32:22.611Z,90.90
2019-03-25T13:36:33.691Z,90.90
2019-03-25T13:40:45.435Z,90.70
2019-03-25T13:44:57.671Z,90.50
2019-03-25T13:49:08.903Z,90.90
2019-03-25T13:53:20.586Z,91.10
2019-03-25T13:57:33.202Z,91.00
2019-03-25T14:01:45.330Z,90.70
2019-03-25T14:05:56.472Z,90.00
2019-03-25T14:10:08.837Z,89.40
2019-03-25T14:14:21.261Z,87.70
2019-03-25T14:18:32.702Z,84.30
2019-03-25T14:22:44.966Z,83.50
2019-03-25T14:26:56.519Z,83.90
2019-03-25T14:31:07.671Z,83.00
2019-03-25T14:35:18.901Z,79.90
2019-03-25T14:39:31.588Z,81.30
2019-03-25T14:43:42.755Z,82.10
2019-03-25T14:47:54.007Z,82.10
2019-03-25T14:52:05.326Z,84.20
2019-03-25T14:56:16.498Z,86.50
2019-03-25T15:00:27.266Z,87.40
2019-03-25T15:04:38.503Z,87.50
2019-03-25T15:08:49.797Z,87.00
2019-03-25T15:13:00.487Z,86.10
2019-03-25T15:17:12.570Z,86.20
2019-03-25T15:21:23.911Z,85.30
2019-03-25T15:25:34.965Z,87.20
2019-03-25T15:29:46.102Z,86.50
2019-03-25T15:33:57.748Z,86.00
2019-03-25T15:38:08.976Z,86.10
2019-03-25T15:42:20.369Z,86.80
2019-03-25T15:46:31.729Z,85.80
2019-03-25T15:50:42.532Z,84.90
2019-03-25T15:54:53.831Z,84.80
2019-03-25T15:59:07.557Z,86.50
2019-03-25T16:03:18.218Z,88.60
2019-03-25T16:07:29.395Z,90.40
2019-03-25T16:11:40.460Z,91.00
2019-03-25T16:15:51.760Z,91.10
2019-03-25T16:20:04.084Z,91.00
2019-03-25T16:24:15.293Z,90.40
2019-03-25T16:28:26.547Z,89.30
2019-03-25T16:32:38.587Z,87.20
2019-03-25T16:36:49.639Z,86.70
2019-03-25T16:41:00.878Z,85.50
2019-03-25T16:45:12.217Z,84.20
2019-03-25T16:49:24.884Z,83.70
2019-03-25T16:53:36.071Z,84.00
2019-03-25T16:57:47.120Z,82.10
2019-03-25T17:01:58.265Z,83.10
2019-03-25T17:06:09.469Z,83.60
2019-03-25T17:10:20.758Z,84.00
2019-03-25T17:14:31.991Z,84.50
2019-03-25T17:18:43.148Z,85.50
2019-03-25T17:22:54.181Z,86.00
2019-03-25T17:27:06.944Z,86.40
2019-03-25T17:31:21.116Z,86.90
2019-03-25T17:35:29.804Z,87.50
2019-03-25T17:39:45.595Z,88.20
2019-03-25T17:43:58.090Z,88.80
2019-03-25T17:48:11.628Z,89.40
2019-03-25T17:52:34.000Z,89.90
2019-03-25T17:56:42.948Z,90.20
2019-03-25T18:01:06.485Z,90.50
2019-03-25T18:05:29.144Z,90.70
2019-03-25T18:09:40.271Z,90.80
2019-03-25T18:13:57.748Z,90.90
2019-03-25T18:18:13.068Z,91.10
2019-03-25T18:22:39.174Z,91.70
2019-03-25T18:26:43.701Z,91.50
2019-03-25T18:30:55.691Z,91.70
2019-03-25T18:35:06.753Z,91.40
2019-03-25T18:39:17.801Z,91.30
2019-03-25T18:43:30.629Z,91.30
2019-03-25T18:47:42.301Z,91.00
2019-03-25T18:51:54.141Z,90.70
2019-03-25T18:56:12.454Z,90.60
2019-03-25T19:00:35.748Z,90.50
2019-03-25T19:04:48.260Z,90.70
2019-03-25T19:09:00.522Z,90.80
2019-03-25T19:13:11.651Z,91.00
2019-03-25T19:17:22.927Z,91.10
2019-03-25T19:21:34.252Z,91.00
2019-03-25T19:25:45.572Z,90.80
2019-03-25T19:29:57.187Z,90.60
2019-03-25T19:34:08.487Z,90.80
2019-03-25T19:38:19.720Z,91.00
2019-03-25T19:42:32.379Z,91.30
2019-03-25T19:46:46.816Z,91.40
2019-03-25T19:50:58.461Z,91.60
2019-03-25T19:55:10.276Z,91.70
2019-03-25T19:59:21.501Z,91.70
2019-03-25T20:03:33.146Z,91.60
2019-03-25T20:07:44.086Z,91.50
2019-03-25T20:11:55.814Z,91.40
2019-03-25T20:16:06.935Z,91.40
2019-03-25T20:20:18.155Z,91.40
2019-03-25T20:24:29.338Z,91.80
2019-03-25T20:28:40.452Z,91.40
2019-03-25T20:32:51.749Z,91.40
2019-03-25T20:37:02.779Z,91.60
2019-03-25T20:41:14.142Z,91.70
2019-03-25T20:45:25.302Z,91.80
2019-03-25T20:49:36.477Z,91.90
2019-03-25T20:53:47.622Z,91.90
2019-03-25T20:57:58.901Z,92.00
2019-03-25T21:02:09.410Z,92.10
2019-03-25T21:06:21.065Z,92.20
2019-03-25T21:10:32.372Z,92.30
2019-03-25T21:14:43.574Z,92.30
2019-03-25T21:18:53.708Z,92.40
2019-03-25T21:23:04.881Z,92.40
2019-03-25T21:27:17.015Z,92.40
2019-03-25T21:31:28.492Z,92.40
2019-03-25T21:35:40.485Z,92.40
2019-03-25T21:39:52.350Z,92.50
2019-03-25T21:44:03.826Z,92.30
2019-03-25T21:48:15.148Z,92.50
2019-03-25T21:52:26.514Z,92.40
2019-03-25T21:56:37.688Z,92.40
2019-03-25T22:00:56.420Z,92.40
2019-03-25T22:05:09.312Z,92.50
2019-03-25T22:09:20.534Z,92.50
2019-03-25T22:13:31.651Z,92.70
2019-03-25T22:17:42.626Z,92.70
2019-03-25T22:21:54.001Z,92.90
2019-03-25T22:26:05.201Z,93.10
2019-03-25T22:30:16.570Z,93.20
2019-03-25T22:34:28.709Z,93.30
2019-03-25T22:38:40.526Z,93.40
2019-03-25T22:42:51.895Z,93.50
2019-03-25T22:47:03.388Z,93.50
2019-03-25T22:51:14.540Z,93.60
2019-03-25T22:55:26.830Z,93.90
2019-03-25T22:59:40.081Z,93.90
2019-03-25T23:03:51.496Z,93.90
2019-03-25T23:08:01.883Z,93.80
2019-03-25T23:12:12.994Z,93.50
2019-03-25T23:16:24.276Z,93.30
2019-03-25T23:20:35.483Z,92.90
2019-03-25T23:24:46.655Z,93.00
2019-03-25T23:28:58.010Z,92.50
2019-03-25T23:33:09.102Z,92.50
2019-03-25T23:37:20.242Z,92.60
2019-03-25T23:41:32.101Z,92.70
2019-03-25T23:45:43.523Z,93.00
2019-03-25T23:49:55.330Z,93.20
2019-03-25T23:54:13.195Z,93.30
2019-03-25T23:58:24.478Z,93.60
